createdAt,value
2023-06-30T00:01:12.185Z,13.23
2023-06-30T00:06:14.568Z,12.70
2023-06-30T00:11:18.482Z,13.37
2023-06-30T00:16:21.628Z,14.27
2023-06-30T00:21:23.990Z,13.90
2023-06-30T00:26:26.368Z,16.23
2023-06-30T00:31:29.827Z,14.27
2023-06-30T00:36:32.947Z,15.10
2023-06-30T00:41:36.144Z,13.70
2023-06-30T00:46:38.611Z,12.30
2023-06-30T00:51:41.654Z,15.43
2023-06-30T00:56:44.220Z,15.33
2023-06-30T01:02:01.378Z,14.00
2023-06-30T01:07:24.486Z,16.60
2023-06-30T01:12:27.180Z,14.90
2023-06-30T01:17:30.043Z,15.87
2023-06-30T01:22:53.209Z,15.87
2023-06-30T01:27:57.309Z,15.83
2023-06-30T01:33:00.427Z,14.93
2023-06-30T01:38:03.821Z,16.60
2023-06-30T01:43:06.709Z,16.00
2023-06-30T01:48:09.286Z,15.00
2023-06-30T01:53:11.755Z,16.40
2023-06-30T01:58:14.129Z,18.07
2023-06-30T02:03:16.604Z,17.77
2023-06-30T02:08:19.187Z,18.73
2023-06-30T02:13:21.532Z,22.00
2023-06-30T02:18:26.492Z,18.30
2023-06-30T02:23:31.549Z,21.50
2023-06-30T02:28:33.970Z,20.87
2023-06-30T02:33:36.774Z,22.60
2023-06-30T02:38:39.145Z,22.17
2023-06-30T02:43:41.568Z,23.27
2023-06-30T02:48:44.088Z,20.37
2023-06-30T02:53:46.839Z,21.77
2023-06-30T02:58:49.207Z,23.43
2023-06-30T03:03:51.832Z,23.07
2023-06-30T03:08:54.422Z,26.40
2023-06-30T03:14:00.252Z,25.27
2023-06-30T03:19:08.031Z,26.87
2023-06-30T03:24:11.112Z,28.73
2023-06-30T03:29:13.527Z,28.33
2023-06-30T03:34:16.135Z,28.20
2023-06-30T03:39:19.409Z,28.43
2023-06-30T03:44:22.854Z,28.73
2023-06-30T03:49:25.843Z,29.10
2023-06-30T03:54:28.335Z,29.80
2023-06-30T03:59:30.795Z,29.43
2023-06-30T04:04:33.671Z,25.50
2023-06-30T04:09:36.803Z,29.60
2023-06-30T04:14:39.259Z,26.53
2023-06-30T04:19:41.611Z,23.33
2023-06-30T04:24:44.001Z,21.90
2023-06-30T04:29:46.364Z,26.23
2023-06-30T04:34:48.761Z,24.53
2023-06-30T04:39:51.793Z,19.57
2023-06-30T04:44:54.478Z,23.83
2023-06-30T04:49:56.990Z,18.37
2023-06-30T04:54:59.403Z,19.60
2023-06-30T05:00:02.107Z,19.97
2023-06-30T05:05:08.264Z,18.47
2023-06-30T05:10:11.198Z,16.47
2023-06-30T05:15:13.629Z,20.27
2023-06-30T05:20:16.728Z,18.30
2023-06-30T05:25:19.195Z,15.23
2023-06-30T05:30:21.559Z,16.27
2023-06-30T05:35:23.954Z,18.50
2023-06-30T05:40:26.338Z,16.57
2023-06-30T05:45:28.727Z,18.37
2023-06-30T05:50:31.291Z,18.90
2023-06-30T05:55:33.664Z,21.73
2023-06-30T06:00:36.323Z,22.63
2023-06-30T06:05:38.986Z,20.40
2023-06-30T06:10:41.702Z,23.60
2023-06-30T06:15:44.457Z,24.20
2023-06-30T06:20:46.988Z,24.90
2023-06-30T06:25:50.588Z,28.90
2023-06-30T06:30:53.403Z,30.03
2023-06-30T06:35:55.842Z,23.47
2023-06-30T06:40:58.289Z,24.27
2023-06-30T06:46:00.734Z,24.40
2023-06-30T06:51:04.806Z,20.97
2023-06-30T06:56:07.178Z,24.57
2023-06-30T07:01:11.501Z,19.07
2023-06-30T07:06:13.868Z,18.80
2023-06-30T07:11:16.246Z,22.10
2023-06-30T07:16:23.107Z,22.90
2023-06-30T07:21:27.667Z,21.57
2023-06-30T07:26:32.886Z,20.53
2023-06-30T07:31:35.684Z,20.77
2023-06-30T07:36:38.600Z,23.43
2023-06-30T07:41:40.953Z,21.50
2023-06-30T07:46:43.477Z,21.73
2023-06-30T07:51:46.835Z,19.83
2023-06-30T07:56:49.366Z,18.77
2023-06-30T08:01:52.499Z,17.83
2023-06-30T08:06:56.027Z,19.00
2023-06-30T08:11:58.894Z,15.57
2023-06-30T08:17:01.662Z,15.60
2023-06-30T08:22:04.619Z,15.07
2023-06-30T08:27:07.293Z,14.27
2023-06-30T08:32:10.200Z,14.70
2023-06-30T08:37:12.678Z,17.73
2023-06-30T08:42:16.596Z,13.10
2023-06-30T08:47:19.323Z,13.17
2023-06-30T08:52:23.337Z,13.60
2023-06-30T08:57:26.563Z,14.03
2023-06-30T09:02:29.302Z,11.43
2023-06-30T09:07:37.576Z,9.63
2023-06-30T09:12:41.065Z,10.80
2023-06-30T09:17:44.386Z,11.33
2023-06-30T09:22:51.608Z,10.10
2023-06-30T09:27:58.194Z,10.00
2023-06-30T09:33:01.081Z,6.93
2023-06-30T09:38:17.640Z,8.20
2023-06-30T09:43:22.048Z,13.60
2023-06-30T09:48:32.587Z,8.43
2023-06-30T09:53:42.303Z,8.97
2023-06-30T09:58:46.319Z,7.50
2023-06-30T10:03:50.374Z,11.90
2023-06-30T10:08:53.288Z,9.83
2023-06-30T10:13:59.357Z,16.67
2023-06-30T10:19:04.134Z,21.23
2023-06-30T10:24:07.122Z,15.10
2023-06-30T10:29:09.682Z,12.23
2023-06-30T10:34:12.518Z,10.10
2023-06-30T10:39:15.497Z,10.40
2023-06-30T10:44:22.215Z,8.30
2023-06-30T10:49:29.211Z,8.90
2023-06-30T10:54:48.935Z,8.33
2023-06-30T11:00:08.407Z,8.33
2023-06-30T11:05:30.587Z,10.33
2023-06-30T11:10:46.288Z,11.97
2023-06-30T11:15:53.455Z,9.73
2023-06-30T11:21:01.461Z,10.93
2023-06-30T11:26:30.118Z,9.97
2023-06-30T11:31:37.938Z,10.97
2023-06-30T11:36:40.447Z,9.97
2023-06-30T11:41:44.961Z,9.37
2023-06-30T11:46:47.501Z,10.87
2023-06-30T11:51:50.079Z,8.33
2023-06-30T11:56:52.497Z,9.20
2023-06-30T12:01:55.520Z,10.73
2023-06-30T12:06:58.040Z,8.07
2023-06-30T12:12:02.035Z,8.70
2023-06-30T12:17:05.715Z,8.20
2023-06-30T12:22:13.422Z,7.33
2023-06-30T12:27:16.331Z,6.77
2023-06-30T12:32:18.868Z,6.87
2023-06-30T12:37:26.728Z,6.67
2023-06-30T12:42:30.013Z,7.93
2023-06-30T12:47:34.219Z,7.90
2023-06-30T12:52:36.872Z,10.40
2023-06-30T12:57:40.141Z,8.87
2023-06-30T13:02:42.917Z,9.57
2023-06-30T13:07:46.093Z,11.20
2023-06-30T13:12:48.643Z,9.73
2023-06-30T13:17:51.840Z,9.50
2023-06-30T13:23:10.044Z,9.67
2023-06-30T13:28:16.753Z,11.03
2023-06-30T13:33:20.715Z,9.97
2023-06-30T13:38:24.551Z,9.60
2023-06-30T13:43:27.021Z,10.00
2023-06-30T13:48:33.310Z,8.43
2023-06-30T13:53:40.506Z,8.37
2023-06-30T13:58:43.177Z,7.77
2023-06-30T14:03:49.901Z,8.90
2023-06-30T14:08:52.452Z,9.13
2023-06-30T14:13:55.148Z,6.40
2023-06-30T14:18:57.652Z,6.53
2023-06-30T14:24:00.111Z,4.60
2023-06-30T14:29:02.682Z,6.20
2023-06-30T14:34:05.121Z,7.13
2023-06-30T14:39:07.763Z,5.33
2023-06-30T14:44:10.194Z,5.90
2023-06-30T14:49:12.704Z,7.30
2023-06-30T14:54:15.096Z,6.10
2023-06-30T14:59:17.569Z,8.90
2023-06-30T15:04:20.109Z,7.77
2023-06-30T15:09:22.735Z,6.73
2023-06-30T15:14:27.665Z,6.50
2023-06-30T15:19:30.163Z,7.23
2023-06-30T15:24:33.381Z,8.07
2023-06-30T15:29:35.850Z,6.20
2023-06-30T15:34:38.418Z,11.23
2023-06-30T15:39:40.934Z,6.37
2023-06-30T15:44:43.424Z,5.93
2023-06-30T15:49:46.653Z,7.80
2023-06-30T15:55:10.071Z,7.53
2023-06-30T16:00:13.458Z,7.77
2023-06-30T16:05:18.022Z,6.27
2023-06-30T16:10:20.529Z,9.03
2023-06-30T16:15:23.643Z,4.90
2023-06-30T16:20:26.722Z,5.37
2023-06-30T16:25:29.101Z,6.93
2023-06-30T16:30:34.418Z,5.77
2023-06-30T16:35:36.901Z,8.00
2023-06-30T16:40:39.573Z,8.53
2023-06-30T16:45:42.041Z,7.90
2023-06-30T16:50:44.592Z,7.67
2023-06-30T16:55:47.440Z,7.30
2023-06-30T17:00:50.878Z,8.53
2023-06-30T17:05:53.561Z,8.53
2023-06-30T17:10:56.397Z,6.13
2023-06-30T17:15:58.952Z,6.80
2023-06-30T17:21:01.620Z,4.50
2023-06-30T17:26:04.172Z,4.57
2023-06-30T17:31:06.939Z,5.63
2023-06-30T17:36:11.513Z,6.13
2023-06-30T17:41:14.334Z,5.93
2023-06-30T17:46:17.866Z,4.53
2023-06-30T17:51:20.367Z,7.17
2023-06-30T17:56:23.903Z,6.83
2023-06-30T18:01:26.421Z,4.80
2023-06-30T18:06:29.049Z,7.47
2023-06-30T18:11:31.535Z,4.93
2023-06-30T18:16:34.052Z,7.97
2023-06-30T18:21:36.494Z,5.60
2023-06-30T18:26:42.094Z,7.20
2023-06-30T18:31:44.901Z,4.83
2023-06-30T18:36:47.746Z,5.30
2023-06-30T18:41:50.578Z,10.80
2023-06-30T18:46:53.300Z,9.80
2023-06-30T18:51:55.751Z,5.67
2023-06-30T18:56:58.651Z,5.17
2023-06-30T19:02:01.302Z,6.07
2023-06-30T19:07:04.153Z,5.37
2023-06-30T19:12:07.202Z,7.67
2023-06-30T19:17:10.906Z,9.60
2023-06-30T19:22:16.062Z,5.90
2023-06-30T19:27:18.916Z,8.80
2023-06-30T19:32:21.499Z,8.17
2023-06-30T19:37:23.995Z,8.13
2023-06-30T19:42:28.829Z,5.47
2023-06-30T19:47:33.577Z,7.37
2023-06-30T19:52:38.213Z,17.70
2023-06-30T19:57:41.130Z,6.53
2023-06-30T20:02:44.546Z,6.47
2023-06-30T20:07:47.625Z,6.53
2023-06-30T20:12:51.112Z,6.20
2023-06-30T20:17:53.614Z,7.37
2023-06-30T20:22:57.187Z,7.47
2023-06-30T20:27:59.660Z,7.60
2023-06-30T20:33:02.191Z,10.10
2023-06-30T20:38:04.765Z,7.50
2023-06-30T20:43:07.208Z,7.83
2023-06-30T20:48:10.332Z,9.23
2023-06-30T20:53:12.743Z,8.63
2023-06-30T20:58:15.194Z,10.50
2023-06-30T21:03:17.839Z,8.17
2023-06-30T21:08:20.400Z,9.90
2023-06-30T21:13:22.784Z,9.10
2023-06-30T21:18:25.200Z,10.50
2023-06-30T21:23:27.598Z,9.13
2023-06-30T21:28:30.862Z,10.03
2023-06-30T21:33:33.343Z,7.33
2023-06-30T21:38:36.179Z,9.93
2023-06-30T21:43:38.552Z,9.40
2023-06-30T21:48:41.208Z,10.37
2023-06-30T21:53:43.677Z,10.30
2023-06-30T21:58:46.166Z,11.13
2023-06-30T22:03:48.682Z,9.93
2023-06-30T22:08:53.394Z,9.70
2023-06-30T22:13:57.965Z,11.13
2023-06-30T22:19:00.325Z,10.87
2023-06-30T22:24:02.738Z,8.47
2023-06-30T22:29:05.174Z,10.23
2023-06-30T22:34:07.768Z,12.07
2023-06-30T22:39:11.276Z,9.90
2023-06-30T22:44:13.684Z,11.67
2023-06-30T22:49:19.261Z,19.47
2023-06-30T22:54:21.652Z,9.23
2023-06-30T22:59:24.057Z,9.77
2023-06-30T23:04:26.469Z,9.37
2023-06-30T23:09:28.914Z,7.90
2023-06-30T23:14:31.382Z,9.60
2023-06-30T23:19:33.877Z,9.03
2023-06-30T23:24:37.043Z,8.67
2023-06-30T23:29:39.595Z,8.07
2023-06-30T23:34:42.019Z,9.63
2023-06-30T23:39:44.830Z,9.37
2023-06-30T23:44:47.229Z,11.10
2023-06-30T23:49:49.606Z,6.23
2023-06-30T23:54:52.346Z,9.57
2023-06-30T23:59:54.695Z,7.40
